Lanseria Airport

Airport
ICAO code: 
FALA
IATA Code: 
HLA
Summary
ICAO Region: 
AFI
Territory: 
Location: 
, Gauteng
Serving: 
Johannesburg
Elevation: 
4517 ft
Coordinates: 
Aerial View: 
25° 56' 18.65" S, 27° 55' 34.079" E
Metar
Observation
FALA 040000Z AUTO 12008KT //// // ////// 19/16 Q1019
Station
Lanseria
Date/Time
2021-12-04 00:00:00
Wind direction
120°
Wind speed
08 kts
Lowest cloud amount
n/a
Temperature
19°C
Dew point
16°C
Humidity
82%
QNH
1019 hPa
Weather condition
n/a

Runways

Designator Length Width Surface Rops
06R/24L 1760 15 ASP Yes/Yes
06L/24R 3048 23 ASP Yes/Yes
Airport map: 
Aerial View: 

SKYbrary Partners:

Safety knowledge contributed by: